Terminal Aerodrome Forecast
Issued by NWS Bismarck, ND

Home | Current Version | Previous Version | Graphics & Text | Print | Product List | Glossary On
Versions: 1 2 3 4 5 6 7 8 9 10 11 12 13 14 15 16 17 18 19 20 21 22
000
FTUS43 KBIS 232300
TAFBIS
TAF
KBIS 232339Z 2400/2424 13013KT P6SM FEW080
     FM240400 12010KT P6SM BKN100
     FM240800 12011KT P6SM VCTS BKN090CB
     FM241200 12013KT P6SM BKN250=

USA.gov is the U.S. government's official web portal to all federal, state and local government web resources and services.